sensor_id;sensor_type;location;lat;lon;timestamp;temperature;humidity
23271;DHT22;11804;51.118;17.058;2023-04-24T00:02:22;14.20;99.90
23271;DHT22;11804;51.118;17.058;2023-04-24T00:04:50;14.00;99.90
23271;DHT22;11804;51.118;17.058;2023-04-24T00:07:18;13.90;99.90
23271;DHT22;11804;51.118;17.058;2023-04-24T00:09:46;13.80;99.90
23271;DHT22;11804;51.118;17.058;2023-04-24T00:12:14;13.80;99.90
23271;DHT22;11804;51.118;17.058;2023-04-24T00:14:41;13.70;99.90
23271;DHT22;11804;51.118;17.058;2023-04-24T00:17:09;13.60;99.90
23271;DHT22;11804;51.118;17.058;2023-04-24T00:19:37;13.60;99.90
23271;DHT22;11804;51.118;17.058;2023-04-24T00:22:05;13.60;99.90
23271;DHT22;11804;51.118;17.058;2023-04-24T00:24:32;13.60;99.90
23271;DHT22;11804;51.118;17.058;2023-04-24T00:27:00;13.50;99.90
23271;DHT22;11804;51.118;17.058;2023-04-24T00:29:29;13.50;99.90
23271;DHT22;11804;51.118;17.058;2023-04-24T00:31:57;13.60;99.90
23271;DHT22;11804;51.118;17.058;2023-04-24T00:34:24;13.60;99.90
23271;DHT22;11804;51.118;17.058;2023-04-24T00:36:52;13.50;99.90
23271;DHT22;11804;51.118;17.058;2023-04-24T00:39:22;13.60;99.90
23271;DHT22;11804;51.118;17.058;2023-04-24T00:41:52;13.70;99.90
23271;DHT22;11804;51.118;17.058;2023-04-24T00:44:21;13.80;99.90
23271;DHT22;11804;51.118;17.058;2023-04-24T00:46:50;14.00;99.90
23271;DHT22;11804;51.118;17.058;2023-04-24T00:49:19;14.10;99.90
23271;DHT22;11804;51.118;17.058;2023-04-24T00:51:47;14.10;99.90
23271;DHT22;11804;51.118;17.058;2023-04-24T00:54:16;14.20;99.90
23271;DHT22;11804;51.118;17.058;2023-04-24T00:56:44;14.30;99.90
23271;DHT22;11804;51.118;17.058;2023-04-24T00:59:15;14.20;99.90
23271;DHT22;11804;51.118;17.058;2023-04-24T01:01:44;14.20;99.90
23271;DHT22;11804;51.118;17.058;2023-04-24T01:04:13;14.20;99.90
23271;DHT22;11804;51.118;17.058;2023-04-24T01:06:43;14.20;99.90
23271;DHT22;11804;51.118;17.058;2023-04-24T01:09:13;14.10;99.90
23271;DHT22;11804;51.118;17.058;2023-04-24T01:11:42;13.60;99.90
23271;DHT22;11804;51.118;17.058;2023-04-24T01:14:12;13.40;99.90
23271;DHT22;11804;51.118;17.058;2023-04-24T01:16:40;13.50;99.90
23271;DHT22;11804;51.118;17.058;2023-04-24T01:19:10;13.70;99.90
23271;DHT22;11804;51.118;17.058;2023-04-24T01:21:39;13.60;99.90
23271;DHT22;11804;51.118;17.058;2023-04-24T01:24:07;13.40;99.90
23271;DHT22;11804;51.118;17.058;2023-04-24T01:26:35;13.30;99.90
23271;DHT22;11804;51.118;17.058;2023-04-24T01:29:02;13.40;99.90
23271;DHT22;11804;51.118;17.058;2023-04-24T01:31:31;13.40;99.90
23271;DHT22;11804;51.118;17.058;2023-04-24T01:34:00;13.40;99.90
23271;DHT22;11804;51.118;17.058;2023-04-24T01:36:27;13.40;99.90
23271;DHT22;11804;51.118;17.058;2023-04-24T01:38:56;13.30;99.90
23271;DHT22;11804;51.118;17.058;2023-04-24T01:41:24;13.50;99.90
23271;DHT22;11804;51.118;17.058;2023-04-24T01:43:52;13.60;99.90
23271;DHT22;11804;51.118;17.058;2023-04-24T01:46:21;13.60;99.90
23271;DHT22;11804;51.118;17.058;2023-04-24T01:48:49;13.50;99.90
23271;DHT22;11804;51.118;17.058;2023-04-24T01:51:17;13.60;99.90
23271;DHT22;11804;51.118;17.058;2023-04-24T01:53:45;13.70;99.90
23271;DHT22;11804;51.118;17.058;2023-04-24T01:56:13;13.80;99.90
23271;DHT22;11804;51.118;17.058;2023-04-24T01:58:41;13.80;99.90
23271;DHT22;11804;51.118;17.058;2023-04-24T02:01:15;13.80;99.90
23271;DHT22;11804;51.118;17.058;2023-04-24T02:03:40;13.90;99.90
23271;DHT22;11804;51.118;17.058;2023-04-24T02:06:08;14.00;99.90
23271;DHT22;11804;51.118;17.058;2023-04-24T02:08:35;14.00;99.90
23271;DHT22;11804;51.118;17.058;2023-04-24T02:11:03;13.90;99.90
23271;DHT22;11804;51.118;17.058;2023-04-24T02:13:32;13.70;99.90
23271;DHT22;11804;51.118;17.058;2023-04-24T02:16:00;13.70;99.90
23271;DHT22;11804;51.118;17.058;2023-04-24T02:18:27;13.60;99.90
23271;DHT22;11804;51.118;17.058;2023-04-24T02:20:55;13.60;99.90
23271;DHT22;11804;51.118;17.058;2023-04-24T02:23:23;13.40;99.90
23271;DHT22;11804;51.118;17.058;2023-04-24T02:25:50;13.10;99.90
23271;DHT22;11804;51.118;17.058;2023-04-24T02:28:20;12.90;99.90
23271;DHT22;11804;51.118;17.058;2023-04-24T02:30:47;12.90;99.90
23271;DHT22;11804;51.118;17.058;2023-04-24T02:33:15;12.70;99.90
23271;DHT22;11804;51.118;17.058;2023-04-24T02:35:43;12.70;99.90
23271;DHT22;11804;51.118;17.058;2023-04-24T02:38:10;12.70;99.90
23271;DHT22;11804;51.118;17.058;2023-04-24T02:40:38;12.70;99.90
23271;DHT22;11804;51.118;17.058;2023-04-24T02:43:06;12.90;99.90
23271;DHT22;11804;51.118;17.058;2023-04-24T02:45:33;13.00;99.90
23271;DHT22;11804;51.118;17.058;2023-04-24T02:48:01;13.10;99.90
23271;DHT22;11804;51.118;17.058;2023-04-24T02:50:28;13.00;99.90
23271;DHT22;11804;51.118;17.058;2023-04-24T02:52:56;13.10;99.90
23271;DHT22;11804;51.118;17.058;2023-04-24T02:55:27;13.20;99.90
23271;DHT22;11804;51.118;17.058;2023-04-24T02:57:54;13.20;99.90
23271;DHT22;11804;51.118;17.058;2023-04-24T03:00:22;13.30;99.90
23271;DHT22;11804;51.118;17.058;2023-04-24T03:02:49;13.20;99.90
23271;DHT22;11804;51.118;17.058;2023-04-24T03:05:18;13.00;99.90
23271;DHT22;11804;51.118;17.058;2023-04-24T03:07:46;12.90;99.90
23271;DHT22;11804;51.118;17.058;2023-04-24T03:10:14;12.90;99.90
23271;DHT22;11804;51.118;17.058;2023-04-24T03:12:41;12.90;99.90
23271;DHT22;11804;51.118;17.058;2023-04-24T03:15:09;12.90;99.90
23271;DHT22;11804;51.118;17.058;2023-04-24T03:17:37;12.90;99.90
23271;DHT22;11804;51.118;17.058;2023-04-24T03:20:05;12.80;99.90
23271;DHT22;11804;51.118;17.058;2023-04-24T03:22:34;12.90;99.90
23271;DHT22;11804;51.118;17.058;2023-04-24T03:25:02;13.00;99.90
23271;DHT22;11804;51.118;17.058;2023-04-24T03:27:30;13.20;99.90
23271;DHT22;11804;51.118;17.058;2023-04-24T03:30:00;13.30;99.90
23271;DHT22;11804;51.118;17.058;2023-04-24T03:32:28;13.40;99.90
23271;DHT22;11804;51.118;17.058;2023-04-24T03:34:55;13.40;99.90
23271;DHT22;11804;51.118;17.058;2023-04-24T03:37:23;13.50;99.90
23271;DHT22;11804;51.118;17.058;2023-04-24T03:39:51;13.50;99.90
23271;DHT22;11804;51.118;17.058;2023-04-24T03:42:18;13.30;99.90
23271;DHT22;11804;51.118;17.058;2023-04-24T03:44:46;13.00;99.90
23271;DHT22;11804;51.118;17.058;2023-04-24T03:47:15;13.00;99.90
23271;DHT22;11804;51.118;17.058;2023-04-24T03:49:42;13.10;99.90
23271;DHT22;11804;51.118;17.058;2023-04-24T03:52:10;13.20;99.90
23271;DHT22;11804;51.118;17.058;2023-04-24T03:54:37;13.30;99.90
23271;DHT22;11804;51.118;17.058;2023-04-24T03:57:05;13.30;99.90
23271;DHT22;11804;51.118;17.058;2023-04-24T03:59:33;13.30;99.90
23271;DHT22;11804;51.118;17.058;2023-04-24T04:02:00;12.90;99.90
23271;DHT22;11804;51.118;17.058;2023-04-24T04:04:28;12.90;99.90
23271;DHT22;11804;51.118;17.058;2023-04-24T04:06:56;13.00;99.90
23271;DHT22;11804;51.118;17.058;2023-04-24T04:09:25;12.90;99.90
23271;DHT22;11804;51.118;17.058;2023-04-24T04:11:52;12.90;99.90
23271;DHT22;11804;51.118;17.058;2023-04-24T04:14:21;12.90;99.90
23271;DHT22;11804;51.118;17.058;2023-04-24T04:16:48;13.00;99.90
23271;DHT22;11804;51.118;17.058;2023-04-24T04:19:16;12.90;99.90
23271;DHT22;11804;51.118;17.058;2023-04-24T04:21:44;12.80;99.90
23271;DHT22;11804;51.118;17.058;2023-04-24T04:24:12;12.90;99.90
23271;DHT22;11804;51.118;17.058;2023-04-24T04:26:40;12.90;99.90
23271;DHT22;11804;51.118;17.058;2023-04-24T04:29:07;13.00;99.90
23271;DHT22;11804;51.118;17.058;2023-04-24T04:31:35;13.20;99.90
23271;DHT22;11804;51.118;17.058;2023-04-24T04:34:03;13.20;99.90
23271;DHT22;11804;51.118;17.058;2023-04-24T04:36:30;13.10;99.90
23271;DHT22;11804;51.118;17.058;2023-04-24T04:38:59;13.10;99.90
23271;DHT22;11804;51.118;17.058;2023-04-24T04:41:26;13.30;99.90
23271;DHT22;11804;51.118;17.058;2023-04-24T04:43:54;13.50;99.90
23271;DHT22;11804;51.118;17.058;2023-04-24T04:46:23;13.80;99.90
23271;DHT22;11804;51.118;17.058;2023-04-24T04:48:53;14.00;99.90
23271;DHT22;11804;51.118;17.058;2023-04-24T04:51:21;14.00;99.90
23271;DHT22;11804;51.118;17.058;2023-04-24T04:53:48;14.00;99.90
23271;DHT22;11804;51.118;17.058;2023-04-24T04:56:16;14.10;99.90
23271;DHT22;11804;51.118;17.058;2023-04-24T04:58:44;14.00;99.90
23271;DHT22;11804;51.118;17.058;2023-04-24T05:01:11;14.00;99.90
23271;DHT22;11804;51.118;17.058;2023-04-24T05:03:39;14.00;99.90
23271;DHT22;11804;51.118;17.058;2023-04-24T05:06:07;14.90;99.90
23271;DHT22;11804;51.118;17.058;2023-04-24T05:08:34;15.50;99.90
23271;DHT22;11804;51.118;17.058;2023-04-24T05:11:02;16.30;99.90
23271;DHT22;11804;51.118;17.058;2023-04-24T05:13:30;17.10;99.90
23271;DHT22;11804;51.118;17.058;2023-04-24T05:15:57;18.20;99.90
23271;DHT22;11804;51.118;17.058;2023-04-24T05:18:25;19.00;93.20
23271;DHT22;11804;51.118;17.058;2023-04-24T05:20:53;18.20;95.00
23271;DHT22;11804;51.118;17.058;2023-04-24T05:23:21;17.80;98.20
23271;DHT22;11804;51.118;17.058;2023-04-24T05:25:49;17.40;99.90
23271;DHT22;11804;51.118;17.058;2023-04-24T05:28:16;17.20;99.90
23271;DHT22;11804;51.118;17.058;2023-04-24T05:30:44;16.80;99.90
23271;DHT22;11804;51.118;17.058;2023-04-24T05:33:12;16.60;99.90
23271;DHT22;11804;51.118;17.058;2023-04-24T05:35:41;16.50;99.90
23271;DHT22;11804;51.118;17.058;2023-04-24T05:38:13;16.40;99.90
23271;DHT22;11804;51.118;17.058;2023-04-24T05:40:42;16.10;99.90
23271;DHT22;11804;51.118;17.058;2023-04-24T05:43:10;16.00;99.90
23271;DHT22;11804;51.118;17.058;2023-04-24T05:45:38;16.00;99.90
23271;DHT22;11804;51.118;17.058;2023-04-24T05:48:06;16.00;99.90
23271;DHT22;11804;51.118;17.058;2023-04-24T05:50:33;16.00;99.90
23271;DHT22;11804;51.118;17.058;2023-04-24T05:53:01;16.10;99.90
23271;DHT22;11804;51.118;17.058;2023-04-24T05:55:30;16.20;99.90
23271;DHT22;11804;51.118;17.058;2023-04-24T05:57:57;16.30;99.90
23271;DHT22;11804;51.118;17.058;2023-04-24T06:00:26;16.50;99.60
23271;DHT22;11804;51.118;17.058;2023-04-24T06:02:55;16.50;98.80
23271;DHT22;11804;51.118;17.058;2023-04-24T06:05:22;16.40;99.80
23271;DHT22;11804;51.118;17.058;2023-04-24T06:07:50;16.30;99.90
23271;DHT22;11804;51.118;17.058;2023-04-24T06:10:18;16.20;99.90
23271;DHT22;11804;51.118;17.058;2023-04-24T06:12:45;16.10;99.90
23271;DHT22;11804;51.118;17.058;2023-04-24T06:15:13;16.10;99.90
23271;DHT22;11804;51.118;17.058;2023-04-24T06:17:40;16.00;99.90
23271;DHT22;11804;51.118;17.058;2023-04-24T06:20:09;16.10;99.90
23271;DHT22;11804;51.118;17.058;2023-04-24T06:22:37;16.50;99.90
23271;DHT22;11804;51.118;17.058;2023-04-24T06:25:07;16.70;99.40
23271;DHT22;11804;51.118;17.058;2023-04-24T06:27:36;16.80;98.90
23271;DHT22;11804;51.118;17.058;2023-04-24T06:30:04;16.70;99.20
23271;DHT22;11804;51.118;17.058;2023-04-24T06:32:32;16.50;99.90
23271;DHT22;11804;51.118;17.058;2023-04-24T06:35:00;16.40;99.30
23271;DHT22;11804;51.118;17.058;2023-04-24T06:37:28;16.30;99.90
23271;DHT22;11804;51.118;17.058;2023-04-24T06:39:56;16.20;99.90
23271;DHT22;11804;51.118;17.058;2023-04-24T06:42:24;16.20;99.90
23271;DHT22;11804;51.118;17.058;2023-04-24T06:44:51;16.20;99.90
23271;DHT22;11804;51.118;17.058;2023-04-24T06:47:19;16.10;99.90
23271;DHT22;11804;51.118;17.058;2023-04-24T06:49:47;16.10;99.90
23271;DHT22;11804;51.118;17.058;2023-04-24T06:52:14;16.10;99.90
23271;DHT22;11804;51.118;17.058;2023-04-24T06:54:42;16.10;99.90
23271;DHT22;11804;51.118;17.058;2023-04-24T06:57:09;16.10;99.90
23271;DHT22;11804;51.118;17.058;2023-04-24T06:59:37;16.20;99.90
23271;DHT22;11804;51.118;17.058;2023-04-24T07:02:05;16.30;99.90
23271;DHT22;11804;51.118;17.058;2023-04-24T07:04:32;16.30;99.00
23271;DHT22;11804;51.118;17.058;2023-04-24T07:07:00;16.40;98.20
23271;DHT22;11804;51.118;17.058;2023-04-24T07:09:28;16.40;98.00
23271;DHT22;11804;51.118;17.058;2023-04-24T07:11:56;16.50;97.70
23271;DHT22;11804;51.118;17.058;2023-04-24T07:14:24;16.60;97.30
23271;DHT22;11804;51.118;17.058;2023-04-24T07:16:52;16.70;96.20
23271;DHT22;11804;51.118;17.058;2023-04-24T07:19:24;16.90;96.10
23271;DHT22;11804;51.118;17.058;2023-04-24T07:21:48;17.10;94.50
23271;DHT22;11804;51.118;17.058;2023-04-24T07:24:16;17.20;93.90
23271;DHT22;11804;51.118;17.058;2023-04-24T07:26:43;17.20;93.40
23271;DHT22;11804;51.118;17.058;2023-04-24T07:29:13;17.20;93.50
23271;DHT22;11804;51.118;17.058;2023-04-24T07:31:41;17.10;94.50
23271;DHT22;11804;51.118;17.058;2023-04-24T07:34:09;17.10;94.90
23271;DHT22;11804;51.118;17.058;2023-04-24T07:36:36;17.00;94.50
23271;DHT22;11804;51.118;17.058;2023-04-24T07:39:06;17.20;94.60
23271;DHT22;11804;51.118;17.058;2023-04-24T07:41:34;17.50;94.20
23271;DHT22;11804;51.118;17.058;2023-04-24T07:44:02;17.80;91.80
23271;DHT22;11804;51.118;17.058;2023-04-24T07:46:30;18.10;91.80
23271;DHT22;11804;51.118;17.058;2023-04-24T07:48:58;18.20;89.70
23271;DHT22;11804;51.118;17.058;2023-04-24T07:51:27;18.20;89.40
23271;DHT22;11804;51.118;17.058;2023-04-24T07:53:55;18.10;90.00
23271;DHT22;11804;51.118;17.058;2023-04-24T07:56:22;17.70;91.30
23271;DHT22;11804;51.118;17.058;2023-04-24T07:58:50;17.80;92.40
23271;DHT22;11804;51.118;17.058;2023-04-24T08:01:18;17.80;92.80
23271;DHT22;11804;51.118;17.058;2023-04-24T08:03:45;17.70;93.90
23271;DHT22;11804;51.118;17.058;2023-04-24T08:06:13;17.70;94.50
23271;DHT22;11804;51.118;17.058;2023-04-24T08:08:41;17.50;95.60
23271;DHT22;11804;51.118;17.058;2023-04-24T08:11:08;17.30;97.00
23271;DHT22;11804;51.118;17.058;2023-04-24T08:13:36;17.30;98.90
23271;DHT22;11804;51.118;17.058;2023-04-24T08:16:04;17.40;98.20
23271;DHT22;11804;51.118;17.058;2023-04-24T08:18:31;17.20;99.60
23271;DHT22;11804;51.118;17.058;2023-04-24T08:21:00;17.20;99.70
23271;DHT22;11804;51.118;17.058;2023-04-24T08:23:28;17.00;99.90
23271;DHT22;11804;51.118;17.058;2023-04-24T08:25:56;16.80;99.90
23271;DHT22;11804;51.118;17.058;2023-04-24T08:28:24;16.80;99.90
23271;DHT22;11804;51.118;17.058;2023-04-24T08:30:52;16.70;99.90
23271;DHT22;11804;51.118;17.058;2023-04-24T08:33:22;16.70;99.90
23271;DHT22;11804;51.118;17.058;2023-04-24T08:35:51;16.70;99.90
23271;DHT22;11804;51.118;17.058;2023-04-24T08:38:19;16.60;99.90
23271;DHT22;11804;51.118;17.058;2023-04-24T08:40:47;16.60;99.90
23271;DHT22;11804;51.118;17.058;2023-04-24T08:43:16;16.60;99.90
23271;DHT22;11804;51.118;17.058;2023-04-24T08:45:44;16.80;99.90
23271;DHT22;11804;51.118;17.058;2023-04-24T08:48:12;16.90;99.90
23271;DHT22;11804;51.118;17.058;2023-04-24T08:50:40;17.10;99.90
23271;DHT22;11804;51.118;17.058;2023-04-24T08:53:09;17.50;99.90
23271;DHT22;11804;51.118;17.058;2023-04-24T08:55:38;18.00;99.90
23271;DHT22;11804;51.118;17.058;2023-04-24T08:58:07;18.90;99.90
23271;DHT22;11804;51.118;17.058;2023-04-24T09:00:36;19.80;98.90
23271;DHT22;11804;51.118;17.058;2023-04-24T09:03:06;20.30;95.80
23271;DHT22;11804;51.118;17.058;2023-04-24T09:05:34;20.40;93.00
23271;DHT22;11804;51.118;17.058;2023-04-24T09:08:02;20.10;92.60
23271;DHT22;11804;51.118;17.058;2023-04-24T09:10:32;20.00;95.00
23271;DHT22;11804;51.118;17.058;2023-04-24T09:13:01;19.90;97.50
23271;DHT22;11804;51.118;17.058;2023-04-24T09:15:29;20.00;97.40
23271;DHT22;11804;51.118;17.058;2023-04-24T09:17:58;20.40;96.30
23271;DHT22;11804;51.118;17.058;2023-04-24T09:20:25;20.70;94.20
23271;DHT22;11804;51.118;17.058;2023-04-24T09:22:57;20.80;92.70
23271;DHT22;11804;51.118;17.058;2023-04-24T09:25:32;21.50;82.90
23271;DHT22;11804;51.118;17.058;2023-04-24T09:28:04;21.90;82.00
23271;DHT22;11804;51.118;17.058;2023-04-24T09:30:33;22.10;79.30
23271;DHT22;11804;51.118;17.058;2023-04-24T09:33:19;22.30;73.50
23271;DHT22;11804;51.118;17.058;2023-04-24T09:35:51;22.70;72.00
23271;DHT22;11804;51.118;17.058;2023-04-24T09:38:38;23.20;68.30
23271;DHT22;11804;51.118;17.058;2023-04-24T09:41:05;23.10;67.60
23271;DHT22;11804;51.118;17.058;2023-04-24T09:43:33;22.80;66.90
23271;DHT22;11804;51.118;17.058;2023-04-24T09:46:05;22.00;68.80
23271;DHT22;11804;51.118;17.058;2023-04-24T09:48:35;21.80;71.30
23271;DHT22;11804;51.118;17.058;2023-04-24T09:51:05;21.50;70.50
23271;DHT22;11804;51.118;17.058;2023-04-24T09:53:44;20.70;73.00
23271;DHT22;11804;51.118;17.058;2023-04-24T09:56:14;20.40;75.80
23271;DHT22;11804;51.118;17.058;2023-04-24T09:58:42;20.10;79.20
23271;DHT22;11804;51.118;17.058;2023-04-24T10:01:10;19.80;81.70
23271;DHT22;11804;51.118;17.058;2023-04-24T10:03:38;19.50;85.70
23271;DHT22;11804;51.118;17.058;2023-04-24T10:06:07;19.20;87.10
23271;DHT22;11804;51.118;17.058;2023-04-24T10:08:37;19.10;90.70
23271;DHT22;11804;51.118;17.058;2023-04-24T10:11:06;19.20;92.20
23271;DHT22;11804;51.118;17.058;2023-04-24T10:13:35;19.20;92.00
23271;DHT22;11804;51.118;17.058;2023-04-24T10:16:04;19.10;93.90
23271;DHT22;11804;51.118;17.058;2023-04-24T10:18:32;19.30;93.80
23271;DHT22;11804;51.118;17.058;2023-04-24T10:21:01;19.20;93.10
23271;DHT22;11804;51.118;17.058;2023-04-24T10:23:30;19.20;93.50
23271;DHT22;11804;51.118;17.058;2023-04-24T10:25:59;19.20;91.90
23271;DHT22;11804;51.118;17.058;2023-04-24T10:28:28;19.10;93.40
23271;DHT22;11804;51.118;17.058;2023-04-24T10:30:58;18.90;94.30
23271;DHT22;11804;51.118;17.058;2023-04-24T10:33:27;18.80;94.90
23271;DHT22;11804;51.118;17.058;2023-04-24T10:35:55;18.60;97.60
23271;DHT22;11804;51.118;17.058;2023-04-24T10:38:26;18.60;94.90
23271;DHT22;11804;51.118;17.058;2023-04-24T10:41:09;18.80;94.80
23271;DHT22;11804;51.118;17.058;2023-04-24T10:43:40;19.50;93.00
23271;DHT22;11804;51.118;17.058;2023-04-24T10:46:08;20.40;90.30
23271;DHT22;11804;51.118;17.058;2023-04-24T10:48:44;20.40;85.90
23271;DHT22;11804;51.118;17.058;2023-04-24T10:51:13;20.20;83.10
23271;DHT22;11804;51.118;17.058;2023-04-24T10:53:40;19.90;87.30
23271;DHT22;11804;51.118;17.058;2023-04-24T10:56:09;19.50;88.60
23271;DHT22;11804;51.118;17.058;2023-04-24T10:58:51;19.20;91.00
23271;DHT22;11804;51.118;17.058;2023-04-24T11:01:25;19.00;91.90
23271;DHT22;11804;51.118;17.058;2023-04-24T11:04:00;18.80;92.50
23271;DHT22;11804;51.118;17.058;2023-04-24T11:06:36;18.40;95.50
23271;DHT22;11804;51.118;17.058;2023-04-24T11:09:09;18.10;98.70
23271;DHT22;11804;51.118;17.058;2023-04-24T11:11:44;18.10;99.90
23271;DHT22;11804;51.118;17.058;2023-04-24T11:14:09;18.20;99.80
23271;DHT22;11804;51.118;17.058;2023-04-24T11:16:53;18.50;99.50
23271;DHT22;11804;51.118;17.058;2023-04-24T11:19:24;18.90;97.00
23271;DHT22;11804;51.118;17.058;2023-04-24T11:22:02;19.20;93.40
23271;DHT22;11804;51.118;17.058;2023-04-24T11:24:39;19.30;92.60
23271;DHT22;11804;51.118;17.058;2023-04-24T11:27:18;19.30;91.30
23271;DHT22;11804;51.118;17.058;2023-04-24T11:32:38;19.30;91.70
23271;DHT22;11804;51.118;17.058;2023-04-24T11:37:44;19.30;91.80
23271;DHT22;11804;51.118;17.058;2023-04-24T11:40:19;19.50;91.10
23271;DHT22;11804;51.118;17.058;2023-04-24T11:42:50;19.50;90.80
23271;DHT22;11804;51.118;17.058;2023-04-24T11:45:23;19.60;91.00
23271;DHT22;11804;51.118;17.058;2023-04-24T11:47:51;19.60;90.00
23271;DHT22;11804;51.118;17.058;2023-04-24T11:50:21;19.70;88.90
23271;DHT22;11804;51.118;17.058;2023-04-24T11:52:50;19.70;86.30
23271;DHT22;11804;51.118;17.058;2023-04-24T11:57:52;19.90;87.20
23271;DHT22;11804;51.118;17.058;2023-04-24T12:00:22;20.20;84.20
23271;DHT22;11804;51.118;17.058;2023-04-24T12:02:51;20.00;83.60
23271;DHT22;11804;51.118;17.058;2023-04-24T12:05:26;19.60;84.30
23271;DHT22;11804;51.118;17.058;2023-04-24T12:07:54;19.40;86.00
23271;DHT22;11804;51.118;17.058;2023-04-24T12:10:24;19.20;87.60
23271;DHT22;11804;51.118;17.058;2023-04-24T12:12:52;19.00;87.30
23271;DHT22;11804;51.118;17.058;2023-04-24T12:15:21;18.80;87.80
23271;DHT22;11804;51.118;17.058;2023-04-24T12:17:50;18.70;87.90
23271;DHT22;11804;51.118;17.058;2023-04-24T12:20:28;18.60;89.50
23271;DHT22;11804;51.118;17.058;2023-04-24T12:22:54;18.50;91.10
23271;DHT22;11804;51.118;17.058;2023-04-24T12:25:24;18.30;91.50
23271;DHT22;11804;51.118;17.058;2023-04-24T12:27:54;18.10;93.20
23271;DHT22;11804;51.118;17.058;2023-04-24T12:30:26;18.20;93.40
23271;DHT22;11804;51.118;17.058;2023-04-24T12:32:53;18.20;93.50
23271;DHT22;11804;51.118;17.058;2023-04-24T12:35:23;18.00;93.60
23271;DHT22;11804;51.118;17.058;2023-04-24T12:37:51;17.90;94.70
23271;DHT22;11804;51.118;17.058;2023-04-24T12:40:20;17.90;95.60
23271;DHT22;11804;51.118;17.058;2023-04-24T12:42:49;18.00;96.00
23271;DHT22;11804;51.118;17.058;2023-04-24T12:45:18;17.90;97.00
23271;DHT22;11804;51.118;17.058;2023-04-24T12:47:46;17.80;96.50
23271;DHT22;11804;51.118;17.058;2023-04-24T12:50:16;17.80;96.50
23271;DHT22;11804;51.118;17.058;2023-04-24T12:52:45;17.70;96.20
23271;DHT22;11804;51.118;17.058;2023-04-24T12:55:12;17.60;95.50
23271;DHT22;11804;51.118;17.058;2023-04-24T12:57:40;17.70;96.60
23271;DHT22;11804;51.118;17.058;2023-04-24T13:00:09;17.80;96.10
23271;DHT22;11804;51.118;17.058;2023-04-24T13:02:37;17.90;94.20
23271;DHT22;11804;51.118;17.058;2023-04-24T13:05:06;17.80;94.70
23271;DHT22;11804;51.118;17.058;2023-04-24T13:07:34;17.60;99.90
23271;DHT22;11804;51.118;17.058;2023-04-24T13:10:01;17.50;99.90
23271;DHT22;11804;51.118;17.058;2023-04-24T13:12:29;17.40;99.90
23271;DHT22;11804;51.118;17.058;2023-04-24T13:14:57;17.40;99.90
23271;DHT22;11804;51.118;17.058;2023-04-24T13:17:25;17.30;99.90
23271;DHT22;11804;51.118;17.058;2023-04-24T13:19:54;17.30;99.90
23271;DHT22;11804;51.118;17.058;2023-04-24T13:22:22;17.30;99.90
23271;DHT22;11804;51.118;17.058;2023-04-24T13:24:51;17.30;99.90
23271;DHT22;11804;51.118;17.058;2023-04-24T13:27:19;17.30;99.90
23271;DHT22;11804;51.118;17.058;2023-04-24T13:29:47;17.20;99.90
23271;DHT22;11804;51.118;17.058;2023-04-24T13:32:15;17.10;99.80
23271;DHT22;11804;51.118;17.058;2023-04-24T13:34:43;16.90;98.00
23271;DHT22;11804;51.118;17.058;2023-04-24T13:37:10;16.70;98.80
23271;DHT22;11804;51.118;17.058;2023-04-24T13:39:38;16.60;99.90
23271;DHT22;11804;51.118;17.058;2023-04-24T13:42:05;16.50;99.90
23271;DHT22;11804;51.118;17.058;2023-04-24T13:44:33;16.20;99.90
23271;DHT22;11804;51.118;17.058;2023-04-24T13:47:01;16.20;99.90
23271;DHT22;11804;51.118;17.058;2023-04-24T13:49:29;16.30;99.90
23271;DHT22;11804;51.118;17.058;2023-04-24T13:51:58;16.20;99.90
23271;DHT22;11804;51.118;17.058;2023-04-24T13:54:25;16.20;99.90
23271;DHT22;11804;51.118;17.058;2023-04-24T13:56:55;16.20;99.90
23271;DHT22;11804;51.118;17.058;2023-04-24T13:59:23;16.20;99.90
23271;DHT22;11804;51.118;17.058;2023-04-24T14:01:51;16.10;98.80
23271;DHT22;11804;51.118;17.058;2023-04-24T14:04:19;16.10;99.90
23271;DHT22;11804;51.118;17.058;2023-04-24T14:06:47;16.20;97.90
23271;DHT22;11804;51.118;17.058;2023-04-24T14:09:15;16.20;97.50
23271;DHT22;11804;51.118;17.058;2023-04-24T14:11:43;16.30;97.00
23271;DHT22;11804;51.118;17.058;2023-04-24T14:14:11;16.30;94.40
23271;DHT22;11804;51.118;17.058;2023-04-24T14:16:38;16.20;92.90
23271;DHT22;11804;51.118;17.058;2023-04-24T14:19:06;16.20;93.70
23271;DHT22;11804;51.118;17.058;2023-04-24T14:21:34;16.20;93.60
23271;DHT22;11804;51.118;17.058;2023-04-24T14:24:01;16.10;92.60
23271;DHT22;11804;51.118;17.058;2023-04-24T14:26:29;16.20;93.40
23271;DHT22;11804;51.118;17.058;2023-04-24T14:28:57;16.20;95.30
23271;DHT22;11804;51.118;17.058;2023-04-24T14:31:25;16.10;97.10
23271;DHT22;11804;51.118;17.058;2023-04-24T14:33:55;15.90;99.20
23271;DHT22;11804;51.118;17.058;2023-04-24T14:36:24;15.90;99.90
23271;DHT22;11804;51.118;17.058;2023-04-24T14:38:51;15.80;99.90
23271;DHT22;11804;51.118;17.058;2023-04-24T14:41:19;15.80;99.90
23271;DHT22;11804;51.118;17.058;2023-04-24T14:43:46;15.80;99.90
23271;DHT22;11804;51.118;17.058;2023-04-24T14:46:14;15.80;99.90
23271;DHT22;11804;51.118;17.058;2023-04-24T14:48:42;15.90;99.90
23271;DHT22;11804;51.118;17.058;2023-04-24T14:51:09;15.80;99.90
23271;DHT22;11804;51.118;17.058;2023-04-24T14:53:37;15.70;99.90
23271;DHT22;11804;51.118;17.058;2023-04-24T14:56:05;15.60;99.90
23271;DHT22;11804;51.118;17.058;2023-04-24T14:58:33;15.60;99.90
23271;DHT22;11804;51.118;17.058;2023-04-24T15:01:02;15.50;99.90
23271;DHT22;11804;51.118;17.058;2023-04-24T15:03:29;15.50;99.90
23271;DHT22;11804;51.118;17.058;2023-04-24T15:05:57;15.40;99.90
23271;DHT22;11804;51.118;17.058;2023-04-24T15:08:25;15.40;99.90
23271;DHT22;11804;51.118;17.058;2023-04-24T15:10:53;15.30;99.90
23271;DHT22;11804;51.118;17.058;2023-04-24T15:13:22;15.30;99.90
23271;DHT22;11804;51.118;17.058;2023-04-24T15:15:49;15.40;99.90
23271;DHT22;11804;51.118;17.058;2023-04-24T15:18:17;15.30;99.90
23271;DHT22;11804;51.118;17.058;2023-04-24T15:20:49;15.30;99.90
23271;DHT22;11804;51.118;17.058;2023-04-24T15:23:14;15.30;99.90
23271;DHT22;11804;51.118;17.058;2023-04-24T15:25:41;15.10;99.90
23271;DHT22;11804;51.118;17.058;2023-04-24T15:28:09;15.20;99.90
23271;DHT22;11804;51.118;17.058;2023-04-24T15:30:37;15.20;99.90
23271;DHT22;11804;51.118;17.058;2023-04-24T15:33:05;15.10;99.90